Time;durP1;ratioP1;P1;durP2;ratioP2;P2;SDS_P1;SDS_P2;PMS_P1;PMS_P2;Temp;Humidity;BMP_temperature;BMP_pressure;BME280_temperature;BME280_humidity;BME280_pressure;Samples;Min_cycle;Max_cycle;Signal;HPM_P1;HPM_P2
2022/09/29 00:00:52;;;;;;;12.13;6.72;;;;;;;7.15;100.00;99910.66;4950804;29;20039;-65
2022/09/29 00:03:18;;;;;;;12.75;6.88;;;;;;;7.14;100.00;99909.03;4950823;29;20039;-65
2022/09/29 00:05:51;;;;;;;13.35;8.13;;;;;;;7.14;100.00;99912.50;4950786;29;20490;-65
2022/09/29 00:08:18;;;;;;;12.35;6.93;;;;;;;7.12;100.00;99905.75;4950533;29;20043;-65
2022/09/29 00:10:45;;;;;;;12.57;7.75;;;;;;;7.09;100.00;99908.81;4950503;29;20615;-65
2022/09/29 00:13:10;;;;;;;13.23;6.57;;;;;;;7.05;100.00;99902.25;4950694;29;20041;-65
2022/09/29 00:15:36;;;;;;;14.20;7.30;;;;;;;7.00;100.00;99902.88;4950654;29;20130;-65
2022/09/29 00:18:01;;;;;;;15.80;6.55;;;;;;;6.99;100.00;99901.22;4932313;29;20035;-66
2022/09/29 00:20:27;;;;;;;12.50;6.90;;;;;;;6.99;100.00;99909.16;4932357;29;20052;-66
2022/09/29 00:22:52;;;;;;;10.50;6.80;;;;;;;6.97;100.00;99897.97;4932077;29;20064;-65
2022/09/29 00:25:18;;;;;;;11.57;6.80;;;;;;;6.94;100.00;99901.81;4932249;29;20047;-65
2022/09/29 00:27:44;;;;;;;11.95;6.95;;;;;;;6.98;100.00;99903.03;4932306;29;20036;-66
2022/09/29 00:30:10;;;;;;;14.82;7.88;;;;;;;6.94;100.00;99907.13;4932259;29;20051;-66
2022/09/29 00:32:35;;;;;;;12.50;6.82;;;;;;;6.92;100.00;99895.91;4932290;29;20032;-66
2022/09/29 00:35:00;;;;;;;12.85;8.00;;;;;;;6.89;100.00;99888.34;4932186;29;20439;-65
2022/09/29 00:37:26;;;;;;;10.90;6.07;;;;;;;6.91;100.00;99902.19;4932147;29;20066;-65
2022/09/29 00:39:52;;;;;;;12.98;7.20;;;;;;;6.89;100.00;99903.41;4931844;29;20024;-65
2022/09/29 00:42:19;;;;;;;10.68;6.10;;;;;;;6.78;100.00;99902.13;4932088;29;20656;-65
2022/09/29 00:45:23;;;;;;;14.45;6.38;;;;;;;6.67;100.00;99903.47;4931954;29;20065;-65
2022/09/29 00:48:12;;;;;;;11.85;6.65;;;;;;;6.53;100.00;99905.25;4924703;29;20566;-65
2022/09/29 00:50:44;;;;;;;13.18;7.25;;;;;;;6.34;100.00;99890.84;4950331;29;20479;-66
2022/09/29 00:53:13;;;;;;;11.32;5.97;;;;;;;6.35;100.00;99900.41;4950259;28;20035;-66
2022/09/29 00:55:51;;;;;;;11.48;6.15;;;;;;;6.31;100.00;99893.88;4951502;28;20034;-66
2022/09/29 00:58:46;;;;;;;11.55;6.53;;;;;;;6.31;100.00;99899.19;4953484;29;20031;-66
2022/09/29 01:01:12;;;;;;;12.80;5.93;;;;;;;6.28;100.00;99904.84;4951997;29;20098;-66
2022/09/29 01:03:42;;;;;;;10.65;6.45;;;;;;;6.23;100.00;99896.66;4953725;29;20027;-66
2022/09/29 01:06:13;;;;;;;12.88;6.72;;;;;;;6.24;100.00;99894.84;4953582;29;20045;-66
2022/09/29 01:08:56;;;;;;;13.45;6.95;;;;;;;6.22;100.00;99899.50;4953830;28;20039;-65
2022/09/29 01:11:22;;;;;;;11.82;6.20;;;;;;;6.19;100.00;99899.91;4953449;28;20037;-65
2022/09/29 01:13:48;;;;;;;14.57;6.93;;;;;;;6.15;100.00;99891.50;4953602;29;20114;-65
2022/09/29 01:16:14;;;;;;;14.38;6.38;;;;;;;6.14;100.00;99897.81;4953502;29;20155;-65
2022/09/29 01:18:41;;;;;;;11.30;6.93;;;;;;;6.12;100.00;99902.47;4953646;29;20479;-65
2022/09/29 01:21:43;;;;;;;11.02;6.32;;;;;;;6.07;100.00;99892.44;4953571;29;20030;-65
2022/09/29 01:24:47;;;;;;;11.65;7.43;;;;;;;6.06;100.00;99900.59;4940361;29;20083;-65
2022/09/29 01:27:23;;;;;;;12.68;6.75;;;;;;;6.02;100.00;99894.84;4942616;29;20043;-66
2022/09/29 01:30:00;;;;;;;12.05;6.72;;;;;;;5.99;100.00;99897.88;4953259;29;20066;-65
2022/09/29 01:32:46;;;;;;;11.95;6.00;;;;;;;5.92;100.00;99900.47;4953190;29;20031;-66
2022/09/29 01:35:41;;;;;;;10.80;5.97;;;;;;;5.93;100.00;99901.28;4953051;28;20062;-66
2022/09/29 01:38:26;;;;;;;12.73;6.35;;;;;;;5.94;100.00;99902.94;4953079;29;20039;-66
2022/09/29 01:41:02;;;;;;;12.50;6.63;;;;;;;5.96;100.00;99898.28;4952623;29;20027;-66
2022/09/29 01:43:32;;;;;;;11.55;5.38;;;;;;;5.89;100.00;99895.56;4952716;29;20031;-66
2022/09/29 01:46:02;;;;;;;11.85;6.95;;;;;;;5.88;100.00;99908.94;4952951;28;20131;-66
2022/09/29 01:48:33;;;;;;;13.52;6.53;;;;;;;5.89;100.00;99910.59;4952924;29;20046;-66
2022/09/29 01:51:05;;;;;;;13.57;7.28;;;;;;;5.92;100.00;99904.91;4952841;29;20054;-65
2022/09/29 01:53:40;;;;;;;15.10;7.53;;;;;;;5.96;100.00;99910.69;4953099;28;20063;-65
2022/09/29 01:56:15;;;;;;;12.10;6.78;;;;;;;5.96;100.00;99910.69;4952817;28;20030;-65
2022/09/29 01:59:17;;;;;;;15.35;7.07;;;;;;;6.00;100.00;99904.84;4952952;29;20031;-65
2022/09/29 02:01:46;;;;;;;14.25;8.48;;;;;;;6.02;100.00;99909.91;4927980;29;20070;-65
2022/09/29 02:04:19;;;;;;;13.07;6.85;;;;;;;6.02;100.00;99905.44;4952643;29;20041;-65
2022/09/29 02:06:52;;;;;;;16.15;8.40;;;;;;;6.00;100.00;99898.69;4951662;28;20097;-65
2022/09/29 02:09:35;;;;;;;13.18;7.80;;;;;;;6.03;100.00;99903.63;4952411;29;20059;-65
2022/09/29 02:12:02;;;;;;;15.52;7.40;;;;;;;6.00;100.00;99902.19;4952405;29;20031;-65
2022/09/29 02:14:35;;;;;;;15.05;7.72;;;;;;;5.99;100.00;99903.19;4952494;29;20949;-65
2022/09/29 02:17:06;;;;;;;21.38;9.18;;;;;;;5.97;100.00;99901.72;4952328;29;20058;-65
2022/09/29 02:19:35;;;;;;;13.00;7.03;;;;;;;5.97;100.00;99907.84;4952441;29;20479;-62
2022/09/29 02:22:01;;;;;;;13.95;7.40;;;;;;;5.90;100.00;99891.88;4944197;29;20055;-62
2022/09/29 02:24:26;;;;;;;14.15;7.57;;;;;;;5.91;100.00;99904.09;4933812;29;20063;-62
2022/09/29 02:26:52;;;;;;;13.32;7.13;;;;;;;5.89;100.00;99916.72;4933838;29;20435;-62
2022/09/29 02:29:18;;;;;;;12.82;7.10;;;;;;;5.86;100.00;99911.78;4933710;29;20028;-62
2022/09/29 02:31:44;;;;;;;15.10;7.93;;;;;;;5.87;100.00;99916.09;4933714;29;20392;-62
2022/09/29 02:34:13;;;;;;;12.85;6.72;;;;;;;5.86;100.00;99917.06;4933766;29;20027;-62
2022/09/29 02:36:43;;;;;;;13.05;7.10;;;;;;;5.85;100.00;99918.09;4952201;29;20471;-62
2022/09/29 02:39:32;;;;;;;12.50;7.15;;;;;;;5.84;100.00;99916.47;4952298;29;20106;-62
2022/09/29 02:42:06;;;;;;;12.93;7.18;;;;;;;5.83;100.00;99911.34;4951920;28;20102;-62
2022/09/29 02:45:06;;;;;;;11.02;6.57;;;;;;;5.78;100.00;99913.75;4951401;29;20031;-62
2022/09/29 02:47:58;;;;;;;10.13;5.95;;;;;;;5.70;100.00;99909.38;4951787;29;20036;-65
2022/09/29 02:51:00;;;;;;;13.15;6.40;;;;;;;5.64;100.00;99913.59;4951751;29;20450;-65
2022/09/29 02:53:44;;;;;;;11.05;6.15;;;;;;;5.56;100.00;99918.19;4951714;29;20035;-65
2022/09/29 02:56:15;;;;;;;12.27;6.50;;;;;;;5.50;100.00;99917.09;4951517;29;20031;-65
2022/09/29 02:58:49;;;;;;;13.57;7.13;;;;;;;5.51;100.00;99912.66;4951471;29;20170;-65
2022/09/29 03:01:15;;;;;;;13.65;7.15;;;;;;;5.48;100.00;99909.38;4951531;29;20027;-65
2022/09/29 03:03:41;;;;;;;12.60;6.75;;;;;;;5.50;100.00;99917.09;4951595;28;20074;-65
2022/09/29 03:06:06;;;;;;;11.75;6.60;;;;;;;5.47;100.00;99915.66;4951410;29;20154;-65
2022/09/29 03:08:32;;;;;;;12.68;8.48;;;;;;;5.49;100.00;99918.94;4951264;29;20047;-65
2022/09/29 03:10:58;;;;;;;16.17;7.78;;;;;;;5.52;100.00;99917.75;4943572;29;20039;-65
2022/09/29 03:13:23;;;;;;;14.13;7.20;;;;;;;5.53;100.00;99914.09;4951189;29;20052;-66
2022/09/29 03:15:49;;;;;;;18.17;9.20;;;;;;;5.53;100.00;99905.31;4951336;28;20031;-65
2022/09/29 03:18:15;;;;;;;15.85;7.53;;;;;;;5.53;100.00;99911.47;4951135;28;20039;-65
2022/09/29 03:20:40;;;;;;;16.80;8.10;;;;;;;5.55;100.00;99916.53;4951531;29;20055;-65
2022/09/29 03:23:05;;;;;;;13.30;7.97;;;;;;;5.55;100.00;99909.41;4951084;29;20137;-65
2022/09/29 03:25:31;;;;;;;14.07;7.45;;;;;;;5.53;100.00;99910.63;4951135;29;20110;-65
2022/09/29 03:27:56;;;;;;;12.77;6.38;;;;;;;5.50;100.00;99903.88;4951141;28;20027;-65
2022/09/29 03:30:22;;;;;;;14.82;7.28;;;;;;;5.53;100.00;99905.31;4951095;29;20538;-65
2022/09/29 03:32:47;;;;;;;12.98;6.80;;;;;;;5.54;100.00;99904.34;4951096;29;20035;-65
2022/09/29 03:35:13;;;;;;;14.65;7.75;;;;;;;5.56;100.00;99910.28;4951033;29;20113;-65
2022/09/29 03:37:38;;;;;;;12.35;7.25;;;;;;;5.56;100.00;99907.63;4951205;29;20388;-65
2022/09/29 03:40:05;;;;;;;16.90;7.47;;;;;;;5.53;100.00;99907.97;4950860;29;20505;-65
2022/09/29 03:42:31;;;;;;;15.02;7.68;;;;;;;5.47;100.00;99907.72;4950992;29;20031;-65
2022/09/29 03:44:56;;;;;;;13.90;7.03;;;;;;;5.44;100.00;99904.63;4950530;29;20236;-65
2022/09/29 03:47:22;;;;;;;15.60;8.13;;;;;;;5.41;100.00;99911.13;4950799;29;20070;-66
2022/09/29 03:49:47;;;;;;;13.57;7.03;;;;;;;5.39;100.00;99905.19;4950921;29;20170;-66
2022/09/29 03:52:12;;;;;;;14.95;8.38;;;;;;;5.39;100.00;99912.31;4951075;29;20031;-65
2022/09/29 03:54:38;;;;;;;15.65;7.63;;;;;;;5.38;100.00;99919.41;4950837;28;20039;-65
2022/09/29 03:57:03;;;;;;;15.32;7.93;;;;;;;5.39;100.00;99914.94;4950910;29;20475;-65
2022/09/29 03:59:29;;;;;;;13.48;7.50;;;;;;;5.38;100.00;99910.69;4950787;29;20364;-65
2022/09/29 04:01:55;;;;;;;14.07;7.45;;;;;;;5.38;100.00;99916.78;4933305;29;20186;-65
2022/09/29 04:04:20;;;;;;;12.77;7.35;;;;;;;5.39;100.00;99925.53;4950211;29;20039;-65
2022/09/29 04:06:46;;;;;;;15.20;7.38;;;;;;;5.38;100.00;99921.25;4950747;29;20061;-65
2022/09/29 04:09:11;;;;;;;15.88;7.93;;;;;;;5.39;100.00;99925.53;4950571;28;20049;-65
2022/09/29 04:11:36;;;;;;;17.48;9.65;;;;;;;5.36;100.00;99923.25;4950743;29;20038;-65
2022/09/29 04:14:02;;;;;;;14.30;7.78;;;;;;;5.36;100.00;99923.25;4950748;28;20070;-65
2022/09/29 04:16:27;;;;;;;13.90;7.75;;;;;;;5.34;100.00;99928.72;4950782;29;20028;-65
2022/09/29 04:18:53;;;;;;;16.40;8.23;;;;;;;5.32;100.00;99930.75;4950661;29;20039;-65
2022/09/29 04:21:18;;;;;;;14.48;7.72;;;;;;;5.31;100.00;99933.56;4933476;29;20030;-65
2022/09/29 04:23:44;;;;;;;14.35;7.07;;;;;;;5.30;100.00;99930.09;4950462;29;20055;-65
2022/09/29 04:26:09;;;;;;;17.63;8.30;;;;;;;5.26;100.00;99937.56;4950609;29;20051;-65
2022/09/29 04:28:36;;;;;;;15.00;8.27;;;;;;;5.27;100.00;99936.59;4950591;29;20086;-65
2022/09/29 04:31:02;;;;;;;16.58;7.35;;;;;;;5.28;100.00;99937.41;4952355;28;20053;-65
2022/09/29 04:33:28;;;;;;;14.68;7.68;;;;;;;5.29;100.00;99941.66;4954358;29;20035;-62
2022/09/29 04:35:54;;;;;;;16.48;8.52;;;;;;;5.30;100.00;99938.03;4954366;29;20027;-62
2022/09/29 04:38:20;;;;;;;16.48;9.23;;;;;;;5.31;100.00;99944.94;4954170;29;20043;-62
2022/09/29 04:40:46;;;;;;;15.73;8.70;;;;;;;5.32;100.00;99937.84;4954222;29;20082;-62
2022/09/29 04:43:12;;;;;;;17.08;8.98;;;;;;;5.33;100.00;99942.94;4954228;29;20038;-62
2022/09/29 04:45:37;;;;;;;19.25;10.80;;;;;;;5.34;100.00;99954.34;4953906;29;20039;-62
2022/09/29 04:48:02;;;;;;;13.38;7.65;;;;;;;5.26;100.00;99957.91;4953571;29;20031;-62
2022/09/29 04:50:28;;;;;;;18.33;7.85;;;;;;;5.19;100.00;99955.19;4953800;29;20391;-62
2022/09/29 04:52:53;;;;;;;15.30;8.10;;;;;;;5.18;100.00;99953.53;4953989;29;20110;-62
2022/09/29 04:55:19;;;;;;;16.35;8.52;;;;;;;5.18;100.00;99958.00;4953988;29;20027;-64
2022/09/29 04:57:45;;;;;;;18.30;9.05;;;;;;;5.16;100.00;99960.00;4953849;29;20043;-62
2022/09/29 05:00:11;;;;;;;16.08;8.10;;;;;;;5.14;100.00;99960.22;4953900;28;20039;-62
2022/09/29 05:02:37;;;;;;;15.18;8.20;;;;;;;5.15;100.00;99961.84;4943145;29;20054;-62
2022/09/29 05:05:03;;;;;;;16.00;7.72;;;;;;;5.12;100.00;99956.09;4953738;29;20360;-62
2022/09/29 05:07:29;;;;;;;15.57;9.95;;;;;;;5.13;100.00;99963.03;4953567;29;20035;-62
2022/09/29 05:09:54;;;;;;;14.70;9.18;;;;;;;5.12;100.00;99956.91;4953698;29;20121;-62
2022/09/29 05:12:20;;;;;;;15.80;9.25;;;;;;;5.11;100.00;99960.56;4953511;29;20023;-62
2022/09/29 05:14:45;;;;;;;17.30;9.57;;;;;;;5.10;100.00;99961.56;4953557;28;20035;-62
2022/09/29 05:17:11;;;;;;;15.63;8.82;;;;;;;5.09;100.00;99972.34;4953503;29;20038;-62
2022/09/29 05:19:36;;;;;;;17.90;9.98;;;;;;;4.96;100.00;99952.63;4953396;29;20089;-61
2022/09/29 05:22:02;;;;;;;18.50;10.35;;;;;;;5.02;100.00;99975.69;4953308;29;20031;-65
2022/09/29 05:24:27;;;;;;;16.70;9.07;;;;;;;5.01;100.00;99967.97;4953148;29;20063;-65
2022/09/29 05:26:53;;;;;;;21.73;8.52;;;;;;;5.01;100.00;99978.53;4953520;29;20491;-66
2022/09/29 05:29:18;;;;;;;19.33;12.25;;;;;;;4.98;100.00;99966.50;4953386;29;20039;-66
2022/09/29 05:31:44;;;;;;;16.88;10.23;;;;;;;4.99;100.00;99970.78;4953080;29;20466;-66
2022/09/29 05:34:09;;;;;;;17.42;10.73;;;;;;;5.00;100.00;99979.50;4953219;29;20122;-66
2022/09/29 05:36:35;;;;;;;20.08;10.20;;;;;;;5.00;100.00;99976.88;4953116;29;20031;-65
2022/09/29 05:39:01;;;;;;;18.05;9.77;;;;;;;5.01;100.00;99989.09;4953186;29;20137;-65
2022/09/29 05:41:26;;;;;;;16.90;9.80;;;;;;;5.02;100.00;99988.09;4952775;28;20027;-66
2022/09/29 05:43:53;;;;;;;17.13;9.85;;;;;;;5.03;100.00;99989.72;4952700;29;20031;-66
2022/09/29 05:46:19;;;;;;;19.10;10.10;;;;;;;5.02;100.00;99996.81;4952862;29;20040;-65
2022/09/29 05:48:50;;;;;;;17.33;9.80;;;;;;;4.99;100.00;99994.56;4952555;29;20737;-65
2022/09/29 05:51:17;;;;;;;17.45;10.07;;;;;;;4.98;100.00;99990.28;4952262;29;20034;-65
2022/09/29 05:53:42;;;;;;;15.82;8.10;;;;;;;4.97;100.00;100001.00;4952677;29;20035;-65
2022/09/29 05:56:11;;;;;;;18.00;9.73;;;;;;;5.00;100.00;99992.72;4952623;29;20089;-65
2022/09/29 05:58:38;;;;;;;16.05;8.55;;;;;;;5.02;100.00;99999.47;4952471;29;20031;-66
2022/09/29 06:01:13;;;;;;;18.48;10.00;;;;;;;5.06;100.00;99999.94;4952502;29;20076;-65
2022/09/29 06:03:39;;;;;;;19.20;10.05;;;;;;;5.07;100.00;100006.84;4952475;29;20023;-65
2022/09/29 06:06:25;;;;;;;18.75;11.13;;;;;;;5.09;100.00;100009.34;4952420;28;20046;-65
2022/09/29 06:08:51;;;;;;;19.15;8.90;;;;;;;5.01;100.00;99989.91;4952138;29;20131;-65
2022/09/29 06:11:19;;;;;;;19.15;9.48;;;;;;;5.11;100.00;100012.59;4934437;29;20130;-62
2022/09/29 06:13:47;;;;;;;20.73;10.52;;;;;;;5.10;100.00;100010.97;4938348;29;20107;-62
2022/09/29 06:16:14;;;;;;;15.50;8.85;;;;;;;5.10;100.00;100006.50;4933980;29;20610;-62
2022/09/29 06:18:40;;;;;;;17.45;9.38;;;;;;;5.11;100.00;100009.94;4952330;29;20120;-62
2022/09/29 06:21:09;;;;;;;16.33;9.52;;;;;;;5.12;100.00;100012.41;4952246;28;20145;-62
2022/09/29 06:23:34;;;;;;;20.00;9.40;;;;;;;5.11;100.00;100013.44;4952019;29;20047;-61
2022/09/29 06:26:03;;;;;;;17.48;10.50;;;;;;;5.12;100.00;100017.72;4951948;29;20406;-62
2022/09/29 06:28:29;;;;;;;17.95;9.38;;;;;;;5.17;100.00;100027.75;4951989;29;20062;-62
2022/09/29 06:30:59;;;;;;;18.95;10.70;;;;;;;5.13;100.00;100021.97;4951780;29;20066;-62
2022/09/29 06:33:25;;;;;;;17.33;9.63;;;;;;;5.20;100.00;100028.19;4951877;29;20038;-62
2022/09/29 06:38:36;;;;;;;18.38;10.77;;;;;;;5.28;100.00;100035.22;4952030;28;20674;-63
2022/09/29 06:41:01;;;;;;;21.58;9.73;;;;;;;5.31;100.00;100032.19;4951957;29;20110;-63
2022/09/29 06:43:26;;;;;;;20.45;10.75;;;;;;;5.38;100.00;100037.59;4951525;29;20118;-63
2022/09/29 06:45:52;;;;;;;20.67;10.63;;;;;;;5.42;100.00;100033.56;4951480;29;20367;-63
2022/09/29 06:48:17;;;;;;;25.30;12.43;;;;;;;5.47;100.00;100041.75;4951543;29;20054;-63
2022/09/29 06:50:42;;;;;;;24.35;14.82;;;;;;;5.54;100.00;100041.88;4944989;29;20638;-63
2022/09/29 06:53:08;;;;;;;21.40;12.02;;;;;;;5.47;100.00;100024.06;4948443;28;20530;-63
2022/09/29 06:55:34;;;;;;;23.23;13.27;;;;;;;5.62;100.00;100045.22;4951034;29;20118;-63
2022/09/29 06:57:59;;;;;;;21.15;13.15;;;;;;;5.69;100.00;100047.97;4951107;29;20078;-64
2022/09/29 07:00:24;;;;;;;25.02;13.10;;;;;;;5.75;100.00;100051.69;4951567;29;20027;-63
2022/09/29 07:02:50;;;;;;;21.73;11.35;;;;;;;5.72;100.00;100044.94;4951178;28;20031;-63
2022/09/29 07:05:15;;;;;;;21.25;11.00;;;;;;;5.88;100.00;100060.59;4951308;29;20046;-63
2022/09/29 07:07:41;;;;;;;24.65;11.55;;;;;;;5.92;100.00;100053.94;4951303;29;20501;-63
2022/09/29 07:10:06;;;;;;;20.23;10.75;;;;;;;6.01;100.00;100053.88;4951114;29;20043;-63
2022/09/29 07:12:32;;;;;;;21.40;12.82;;;;;;;6.06;100.00;100062.06;4951260;29;20102;-63
2022/09/29 07:14:57;;;;;;;29.17;12.52;;;;;;;6.12;100.00;100056.84;4950261;29;20039;-63
2022/09/29 07:17:22;;;;;;;23.73;12.10;;;;;;;6.20;100.00;100060.38;4950774;28;20046;-63
2022/09/29 07:19:48;;;;;;;22.80;13.65;;;;;;;6.29;100.00;100061.91;4943608;28;20022;-64
2022/09/29 07:22:13;;;;;;;22.08;12.85;;;;;;;6.35;100.00;100067.25;4936326;28;20027;-64
2022/09/29 07:24:39;;;;;;;27.23;12.70;;;;;;;6.43;100.00;100061.03;4936591;28;20422;-64
2022/09/29 07:27:04;;;;;;;21.23;12.38;;;;;;;6.51;100.00;100068.03;4936036;28;20063;-67
2022/09/29 07:29:31;;;;;;;22.98;12.88;;;;;;;6.59;100.00;100075.84;4936954;28;20043;-70
2022/09/29 07:31:58;;;;;;;24.85;14.48;;;;;;;6.66;100.00;100067.97;4935724;28;20107;-66
2022/09/29 07:34:23;;;;;;;23.10;12.98;;;;;;;6.73;100.00;100074.97;4936557;28;20079;-66
2022/09/29 07:36:49;;;;;;;21.60;12.82;;;;;;;6.79;100.00;100071.53;4935444;28;20110;-69
2022/09/29 07:39:14;;;;;;;22.85;14.05;;;;;;;6.90;100.00;100067.56;4936630;28;20043;-67
2022/09/29 07:41:40;;;;;;;25.88;15.52;;;;;;;7.01;100.00;100085.56;4936044;28;20039;-68
2022/09/29 07:44:05;;;;;;;21.77;12.63;;;;;;;7.15;100.00;100077.72;4935496;28;20197;-67
2022/09/29 07:46:31;;;;;;;22.45;12.88;;;;;;;7.22;100.00;100075.94;4936878;28;20135;-67
2022/09/29 07:48:57;;;;;;;23.50;12.95;;;;;;;7.28;100.00;100074.34;4919384;28;20063;-68
2022/09/29 07:51:22;;;;;;;23.85;13.82;;;;;;;7.38;100.00;100077.47;4935910;28;20023;-69
2022/09/29 07:53:48;;;;;;;21.90;12.73;;;;;;;7.46;100.00;100083.44;4936137;28;20432;-69
2022/09/29 07:56:17;;;;;;;22.02;12.93;;;;;;;7.57;100.00;100089.22;4936105;28;20083;-68
2022/09/29 07:58:43;;;;;;;19.52;11.57;;;;;;;7.62;100.00;100082.31;4935626;28;20015;-68
2022/09/29 08:01:11;;;;;;;20.15;11.13;;;;;;;7.78;100.00;100093.59;4932258;29;20042;-69
2022/09/29 08:03:41;;;;;;;24.58;12.60;;;;;;;7.88;100.00;100097.53;4932336;29;20028;-67
2022/09/29 08:06:07;;;;;;;23.45;12.02;;;;;;;7.95;100.00;100096.75;4934193;29;20059;-67
2022/09/29 08:08:37;;;;;;;19.63;11.23;;;;;;;8.02;100.00;100100.25;4936044;29;20070;-67
2022/09/29 08:11:10;;;;;;;27.92;11.00;;;;;;;8.03;100.00;100097.41;4936005;29;20043;-67
2022/09/29 08:13:37;;;;;;;22.83;10.93;;;;;;;8.19;100.00;100106.84;4953982;29;20027;-66
2022/09/29 08:16:04;;;;;;;20.35;12.00;;;;;;;8.31;100.00;100112.41;4953224;28;20514;-66
2022/09/29 08:18:31;;;;;;;20.10;11.48;;;;;;;8.37;100.00;100113.44;4953383;29;20034;-65
2022/09/29 08:20:56;;;;;;;20.42;11.77;;;;;;;8.47;100.00;100114.72;4953452;29;20033;-65
2022/09/29 08:23:22;;;;;;;20.98;11.95;;;;;;;8.56;100.00;100115.34;4953195;28;20515;-65
2022/09/29 08:25:49;;;;;;;19.02;11.55;;;;;;;8.73;100.00;100124.59;4954062;29;20180;-65
2022/09/29 08:28:14;;;;;;;23.20;12.32;;;;;;;8.83;100.00;100126.03;4954168;29;20027;-65
2022/09/29 08:30:40;;;;;;;21.98;11.95;;;;;;;8.90;100.00;100129.50;4953527;29;20158;-65
2022/09/29 08:33:13;;;;;;;21.10;11.07;;;;;;;8.99;100.00;100131.78;4954105;29;20058;-65
2022/09/29 08:35:39;;;;;;;21.63;11.52;;;;;;;9.10;100.00;100132.19;4954286;29;20394;-65
2022/09/29 08:38:04;;;;;;;21.23;11.13;;;;;;;9.21;100.00;100134.22;4954083;29;20112;-65
2022/09/29 08:40:30;;;;;;;21.17;11.80;;;;;;;9.29;100.00;100139.34;4953358;29;20315;-65
2022/09/29 08:43:08;;;;;;;20.20;10.40;;;;;;;9.37;100.00;100144.44;4954091;29;20035;-66
2022/09/29 08:45:41;;;;;;;17.42;10.73;;;;;;;9.46;100.00;100142.41;4953511;29;20027;-65
2022/09/29 08:48:15;;;;;;;16.83;10.05;;;;;;;9.52;100.00;100138.91;4953420;29;20566;-68
2022/09/29 08:50:55;;;;;;;19.55;10.07;;;;;;;9.63;100.00;100140.94;4953954;29;20027;-65
2022/09/29 08:53:24;;;;;;;19.65;11.18;;;;;;;9.75;100.00;100143.78;4942861;28;20113;-67
2022/09/29 08:56:01;;;;;;;19.20;10.95;;;;;;;9.86;100.00;100137.81;4938887;28;20034;-64
2022/09/29 08:58:27;;;;;;;17.05;9.43;;;;;;;9.93;100.00;100137.81;4938890;28;20031;-64
2022/09/29 09:01:43;;;;;;;20.17;12.00;;;;;;;10.13;100.00;100144.91;4939211;28;20031;-63
2022/09/29 09:04:27;;;;;;;17.83;9.48;;;;;;;10.26;99.95;100140.31;4917846;28;20051;-63
2022/09/29 09:06:56;;;;;;;17.00;8.90;;;;;;;10.39;99.73;100144.00;4938783;28;20412;-64
2022/09/29 09:09:44;;;;;;;17.20;8.93;;;;;;;10.48;98.85;100148.06;4938381;28;20044;-65
2022/09/29 09:12:24;;;;;;;17.40;8.63;;;;;;;10.60;98.54;100153.53;4938681;28;20074;-65
2022/09/29 09:15:27;;;;;;;20.38;10.63;;;;;;;10.74;98.42;100157.72;4938640;28;20451;-67
2022/09/29 09:18:27;;;;;;;14.27;7.60;;;;;;;10.88;97.86;100155.81;4938511;28;20041;-67
2022/09/29 09:21:00;;;;;;;16.67;8.27;;;;;;;11.01;98.83;100155.72;4939653;28;20028;-68
2022/09/29 09:23:47;;;;;;;14.68;7.80;;;;;;;11.12;96.17;100159.53;4938591;28;20086;-68
2022/09/29 09:26:13;;;;;;;16.10;8.75;;;;;;;11.19;96.64;100157.63;4938780;28;20078;-68
2022/09/29 09:29:10;;;;;;;16.02;8.63;;;;;;;11.33;96.57;100159.16;4939109;28;20464;-67
2022/09/29 09:31:45;;;;;;;14.20;8.32;;;;;;;11.45;95.10;100161.09;4936758;28;20048;-66
2022/09/29 09:34:22;;;;;;;13.20;6.70;;;;;;;11.55;93.85;100156.91;4934422;29;20055;-66
2022/09/29 09:37:16;;;;;;;14.15;7.00;;;;;;;11.62;93.09;100165.66;4934863;29;20036;-66
2022/09/29 09:39:55;;;;;;;11.90;7.35;;;;;;;11.65;92.83;100169.75;4934940;29;20027;-66
2022/09/29 09:42:26;;;;;;;13.95;6.22;;;;;;;11.61;88.97;100164.03;4953188;29;20532;-67
2022/09/29 09:44:56;;;;;;;12.45;6.85;;;;;;;11.61;89.61;100165.91;4953040;29;20038;-66
2022/09/29 09:47:41;;;;;;;12.70;7.45;;;;;;;11.65;91.19;100163.59;4952963;29;20510;-68
2022/09/29 09:50:14;;;;;;;14.68;7.70;;;;;;;11.75;91.73;100166.56;4952986;29;20364;-68
2022/09/29 09:53:09;;;;;;;12.30;6.85;;;;;;;11.82;90.50;100162.81;4952782;29;20042;-68
2022/09/29 09:55:35;;;;;;;12.32;6.60;;;;;;;11.91;88.67;100170.56;4952748;29;20054;-68
2022/09/29 09:58:25;;;;;;;13.55;7.05;;;;;;;12.01;88.58;100176.19;4952793;29;20031;-68
2022/09/29 10:01:06;;;;;;;13.13;6.72;;;;;;;12.09;88.84;100172.41;4952664;29;20045;-68
2022/09/29 10:03:32;;;;;;;12.07;6.88;;;;;;;11.94;86.35;100170.91;4952466;28;20030;-68
2022/09/29 10:05:57;;;;;;;11.23;6.72;;;;;;;11.84;87.34;100170.56;4935243;29;20011;-68
2022/09/29 10:08:29;;;;;;;12.43;7.07;;;;;;;11.93;85.97;100168.47;4952635;29;20039;-68
2022/09/29 10:10:56;;;;;;;11.15;6.00;;;;;;;12.02;86.14;100172.47;4952495;29;20035;-68
2022/09/29 10:13:27;;;;;;;11.88;7.30;;;;;;;12.17;87.44;100180.94;4952455;28;20034;-68
2022/09/29 10:16:02;;;;;;;11.82;6.25;;;;;;;12.26;86.08;100184.13;4952321;28;20118;-68
2022/09/29 10:18:39;;;;;;;10.82;6.28;;;;;;;12.33;86.54;100178.72;4952351;29;20122;-68
2022/09/29 10:21:25;;;;;;;11.10;6.22;;;;;;;12.39;86.48;100188.50;4952205;28;20030;-68
2022/09/29 10:23:55;;;;;;;9.88;5.22;;;;;;;12.39;84.76;100180.47;4952137;28;20395;-68
2022/09/29 10:26:26;;;;;;;10.32;5.13;;;;;;;12.38;82.76;100186.88;4952167;29;20095;-68
2022/09/29 10:29:02;;;;;;;10.25;5.03;;;;;;;12.45;86.16;100188.41;4951225;28;20031;-68
2022/09/29 10:31:34;;;;;;;10.93;5.05;;;;;;;12.59;83.87;100191.72;4933610;29;20031;-69
2022/09/29 10:34:15;;;;;;;9.82;5.63;;;;;;;12.70;82.91;100193.63;4933672;29;20082;-68
2022/09/29 10:37:00;;;;;;;9.10;4.53;;;;;;;12.75;83.05;100192.16;4951986;28;20019;-68
2022/09/29 10:39:42;;;;;;;6.22;4.00;;;;;;;12.76;81.18;100193.78;4951915;29;20043;-68
2022/09/29 10:42:22;;;;;;;7.78;3.92;;;;;;;12.84;82.40;100196.97;4952067;29;20031;-68
2022/09/29 10:45:10;;;;;;;8.73;4.43;;;;;;;12.90;79.94;100195.22;4951956;29;20536;-68
2022/09/29 10:47:36;;;;;;;6.97;4.05;;;;;;;12.96;80.70;100199.66;4951883;29;20439;-68
2022/09/29 10:50:12;;;;;;;9.98;5.75;;;;;;;13.00;79.88;100198.19;4951775;29;20361;-68
2022/09/29 10:52:42;;;;;;;9.57;4.72;;;;;;;12.88;79.57;100198.13;4951792;29;20027;-69
2022/09/29 10:55:15;;;;;;;8.23;4.30;;;;;;;12.84;80.58;100186.25;4951897;29;20024;-68
2022/09/29 10:57:43;;;;;;;7.57;4.03;;;;;;;12.98;79.69;100200.25;4951694;29;20065;-68
2022/09/29 11:00:25;;;;;;;5.88;3.85;;;;;;;13.03;79.86;100197.72;4951657;28;20085;-68
2022/09/29 11:02:52;;;;;;;9.55;4.60;;;;;;;13.10;78.31;100200.31;4951497;29;20031;-68
2022/09/29 11:05:25;;;;;;;7.70;4.55;;;;;;;13.15;78.67;100201.25;4951432;28;20023;-68
2022/09/29 11:07:52;;;;;;;7.05;4.13;;;;;;;13.27;79.06;100203.16;4951343;29;20035;-68
2022/09/29 11:10:31;;;;;;;6.15;3.78;;;;;;;13.35;77.83;100198.25;4951286;29;20126;-69
2022/09/29 11:12:59;;;;;;;6.45;3.40;;;;;;;13.40;75.25;100205.63;4951576;29;20050;-68
2022/09/29 11:15:38;;;;;;;4.45;2.78;;;;;;;13.40;75.67;100207.47;4951549;29;20054;-69
2022/09/29 11:18:18;;;;;;;7.43;3.70;;;;;;;13.37;75.75;100204.22;4951337;29;20083;-68
2022/09/29 11:20:48;;;;;;;9.50;4.07;;;;;;;13.38;74.19;100207.69;4942322;28;20110;-67
2022/09/29 11:23:36;;;;;;;8.73;3.75;;;;;;;13.50;75.48;100213.91;4936150;28;20051;-69
2022/09/29 11:26:22;;;;;;;6.93;3.95;;;;;;;13.64;76.55;100205.63;4935750;28;20539;-68
2022/09/29 11:28:47;;;;;;;9.68;4.07;;;;;;;13.74;73.85;100205.88;4936780;28;20039;-69
2022/09/29 11:31:16;;;;;;;7.47;4.10;;;;;;;13.72;74.67;100207.97;4936021;28;20035;-69
2022/09/29 11:34:23;;;;;;;9.70;4.13;;;;;;;13.76;74.31;100209.94;4936569;28;20030;-69
2022/09/29 11:36:59;;;;;;;6.25;3.30;;;;;;;13.72;70.85;100205.28;4877215;29;20029;-70
2022/09/29 11:39:24;;;;;;;10.50;3.42;;;;;;;13.82;75.19;100203.63;4928157;28;20111;-70